createdAt,value
2023-05-04T00:02:01.052Z,100958.91
2023-05-04T00:07:02.439Z,100956.16
2023-05-04T00:12:03.967Z,100954.53
2023-05-04T00:17:06.568Z,100957.00
2023-05-04T00:22:08.010Z,100953.44
2023-05-04T00:27:10.460Z,100952.63
2023-05-04T00:32:11.829Z,100945.25
2023-05-04T00:37:13.210Z,100943.16
2023-05-04T00:42:14.647Z,100930.97
2023-05-04T00:47:16.792Z,100931.59
2023-05-04T00:52:19.459Z,100932.66
2023-05-04T00:57:20.835Z,100930.78
2023-05-04T01:02:22.228Z,100933.94
2023-05-04T01:07:29.893Z,100937.69
2023-05-04T01:12:35.268Z,100931.38
2023-05-04T01:17:36.811Z,100929.28
2023-05-04T01:22:38.326Z,100928.84
2023-05-04T01:27:56.492Z,100928.03
2023-05-04T01:32:57.916Z,100913.53
2023-05-04T01:37:59.449Z,100926.34
2023-05-04T01:43:00.829Z,100920.66
2023-05-04T01:48:02.228Z,100929.09
2023-05-04T01:53:03.674Z,100924.06
2023-05-04T01:58:05.060Z,100917.72
2023-05-04T02:03:06.495Z,100928.84
2023-05-04T02:08:07.953Z,100925.50
2023-05-04T02:13:09.396Z,100916.28
2023-05-04T02:18:10.923Z,100920.44
2023-05-04T02:23:12.453Z,100937.03
2023-05-04T02:28:13.873Z,100928.84
2023-05-04T02:33:15.321Z,100930.53
2023-05-04T02:38:16.703Z,100932.66
2023-05-04T02:43:18.220Z,100932.66
2023-05-04T02:48:19.632Z,100927.56
2023-05-04T02:53:21.056Z,100927.19
2023-05-04T02:58:22.444Z,100928.84
2023-05-04T03:03:23.833Z,100926.75
2023-05-04T03:08:25.346Z,100930.97
2023-05-04T03:13:26.772Z,100928.03
2023-05-04T03:18:28.160Z,100921.09
2023-05-04T03:23:29.557Z,100917.56
2023-05-04T03:28:31.346Z,100933.09
2023-05-04T03:33:32.718Z,100935.59
2023-05-04T03:38:34.233Z,100929.28
2023-05-04T03:43:35.604Z,100920.50
2023-05-04T03:48:36.986Z,100922.78
2023-05-04T03:53:38.378Z,100925.50
2023-05-04T03:58:39.752Z,100925.94
2023-05-04T04:03:41.277Z,100924.91
2023-05-04T04:08:42.768Z,100930.38
2023-05-04T04:13:44.147Z,100924.91
2023-05-04T04:18:46.280Z,100914.59
2023-05-04T04:23:47.706Z,100919.44
2023-05-04T04:28:50.790Z,100915.63
2023-05-04T04:33:52.552Z,100914.81
2023-05-04T04:38:53.964Z,100927.63
2023-05-04T04:43:55.362Z,100918.16
2023-05-04T04:48:57.019Z,100919.44
2023-05-04T04:53:58.852Z,100929.28
2023-05-04T04:59:00.279Z,100918.38
2023-05-04T05:04:01.654Z,100929.69
2023-05-04T05:09:03.161Z,100929.28
2023-05-04T05:14:04.642Z,100929.94
2023-05-04T05:19:06.055Z,100926.34
2023-05-04T05:24:07.510Z,100919.84
2023-05-04T05:29:09.410Z,100923.38
2023-05-04T05:34:10.789Z,100911.25
2023-05-04T05:39:12.197Z,100912.47
2023-05-04T05:44:13.566Z,100916.03
2023-05-04T05:49:14.940Z,100908.69
2023-05-04T05:54:16.446Z,100909.53
2023-05-04T05:59:17.823Z,100930.09
2023-05-04T06:04:19.268Z,100919.59
2023-05-04T06:09:21.007Z,100915.84
2023-05-04T06:14:22.471Z,100907.63
2023-05-04T06:19:23.872Z,100899.44
2023-05-04T06:24:26.830Z,100899.56
2023-05-04T06:29:28.318Z,100892.53
2023-05-04T06:34:29.698Z,100885.38
2023-05-04T06:39:31.319Z,100895.44
2023-05-04T06:44:35.902Z,100889.75
2023-05-04T06:49:37.379Z,100889.81
2023-05-04T06:54:40.227Z,100884.78
2023-05-04T06:59:42.017Z,100884.09
2023-05-04T07:04:43.785Z,100879.19
2023-05-04T07:09:47.737Z,100876.09
2023-05-04T07:14:49.119Z,100876.53
2023-05-04T07:19:52.455Z,100874.56
2023-05-04T07:24:53.884Z,100861.91
2023-05-04T07:29:55.672Z,100851.97
2023-05-04T07:34:57.364Z,100851.91
2023-05-04T07:40:00.279Z,100852.75
2023-05-04T07:45:01.667Z,100842.81
2023-05-04T07:50:04.318Z,100848.41
2023-05-04T07:55:06.713Z,100829.28
2023-05-04T08:00:09.592Z,100837.91
2023-05-04T08:05:11.690Z,100828.06
2023-05-04T08:10:13.140Z,100832.47
2023-05-04T08:15:14.821Z,100825.41
2023-05-04T08:20:16.781Z,100820.31
2023-05-04T08:25:18.180Z,100822.06
2023-05-04T08:30:19.625Z,100823.28
2023-05-04T08:35:23.485Z,100810.28
2023-05-04T08:40:24.959Z,100807.31
2023-05-04T08:45:26.606Z,100799.34
2023-05-04T08:50:27.978Z,100804.75
2023-05-04T08:55:30.649Z,100785.38
2023-05-04T09:00:32.971Z,100807.03
2023-05-04T09:05:34.536Z,100803.22
2023-05-04T09:10:36.868Z,100805.75
2023-05-04T09:15:38.237Z,100796.03
2023-05-04T09:20:43.315Z,100792.53
2023-05-04T09:25:51.724Z,100785.16
2023-05-04T09:30:59.621Z,100793.56
2023-05-04T09:36:14.109Z,100790.84
2023-05-04T09:41:15.507Z,100785.16
2023-05-04T09:46:18.068Z,100791.00
2023-05-04T09:51:23.101Z,100780.72
2023-05-04T09:56:32.851Z,100789.91
2023-05-04T10:01:34.313Z,100766.34
2023-05-04T10:06:35.981Z,100756.47
2023-05-04T10:11:37.390Z,100754.25
2023-05-04T10:16:47.508Z,100748.31
2023-05-04T10:22:04.310Z,100748.94
2023-05-04T10:27:43.131Z,100742.84
2023-05-04T10:32:44.562Z,100744.38
2023-05-04T10:37:54.223Z,100730.72
2023-05-04T10:42:55.756Z,100718.09
2023-05-04T10:47:57.460Z,100706.75
2023-05-04T10:53:00.010Z,100702.13
2023-05-04T10:58:01.523Z,100697.59
2023-05-04T11:03:03.538Z,100698.72
2023-05-04T11:08:26.874Z,100684.59
2023-05-04T11:13:31.862Z,100670.47
2023-05-04T11:18:34.187Z,100660.19
2023-05-04T11:23:35.631Z,100657.44
2023-05-04T11:28:37.394Z,100648.78
2023-05-04T11:33:38.833Z,100644.94
2023-05-04T11:38:40.217Z,100648.41
2023-05-04T11:43:42.640Z,100634.50
2023-05-04T11:48:44.121Z,100630.69
2023-05-04T11:53:45.551Z,100627.50
2023-05-04T11:58:46.947Z,100621.09
2023-05-04T12:03:53.778Z,100626.09
2023-05-04T12:09:09.593Z,100616.13
2023-05-04T12:14:13.605Z,100606.47
2023-05-04T12:19:15.004Z,100654.81
2023-05-04T12:24:16.439Z,100610.81
2023-05-04T12:29:17.841Z,100597.47
2023-05-04T12:34:19.259Z,100592.13
2023-05-04T12:39:20.911Z,100593.28
2023-05-04T12:44:22.340Z,100584.88
2023-05-04T12:49:24.848Z,100580.69
2023-05-04T12:54:26.579Z,100575.72
2023-05-04T12:59:28.222Z,100569.25
2023-05-04T13:04:29.602Z,100562.13
2023-05-04T13:09:31.054Z,100556.56
2023-05-04T13:19:40.427Z,100552.25
2023-05-04T13:24:41.816Z,100554.63
2023-05-04T13:29:44.111Z,100545.38
2023-05-04T13:34:46.309Z,100539.78
2023-05-04T13:39:47.753Z,100526.56
2023-05-04T13:44:49.139Z,100530.00
2023-05-04T13:49:50.830Z,100529.88
2023-05-04T13:54:52.398Z,100511.56
2023-05-04T14:00:05.773Z,100507.78
2023-05-04T14:05:08.972Z,100497.88
2023-05-04T14:10:10.712Z,100491.94
2023-05-04T14:15:12.154Z,100486.69
2023-05-04T14:20:13.766Z,100481.84
2023-05-04T14:25:15.620Z,100482.53
2023-05-04T14:30:17.057Z,100470.41
2023-05-04T14:35:18.484Z,100463.16
2023-05-04T14:40:19.940Z,100460.41
2023-05-04T14:45:21.462Z,100454.47
2023-05-04T14:50:22.848Z,100450.06
2023-05-04T14:55:24.218Z,100440.41
2023-05-04T15:00:25.788Z,100422.81
2023-05-04T15:05:27.183Z,100427.09
2023-05-04T15:10:28.679Z,100429.94
2023-05-04T15:15:30.055Z,100427.69
2023-05-04T15:20:31.421Z,100427.94
2023-05-04T15:25:32.793Z,100414.59
2023-05-04T15:30:34.174Z,100407.34
2023-05-04T15:35:36.091Z,100407.19
2023-05-04T15:40:37.533Z,100405.06
2023-05-04T15:45:38.915Z,100393.75
2023-05-04T15:50:40.383Z,100397.09
2023-05-04T15:55:41.795Z,100388.78
2023-05-04T16:00:43.174Z,100382.00
2023-05-04T16:05:44.564Z,100376.03
2023-05-04T16:10:46.417Z,100374.97
2023-05-04T16:15:51.263Z,100368.69
2023-05-04T16:20:54.482Z,100373.31
2023-05-04T16:25:56.046Z,100370.56
2023-05-04T16:30:57.778Z,100362.84
2023-05-04T16:35:59.751Z,100365.78
2023-05-04T16:41:01.252Z,100364.63
2023-05-04T16:46:02.819Z,100365.94
2023-05-04T16:51:05.137Z,100360.69
2023-05-04T16:56:07.329Z,100355.47
2023-05-04T17:01:10.461Z,100360.09
2023-05-04T17:06:12.728Z,100353.41
2023-05-04T17:11:14.110Z,100354.25
2023-05-04T17:16:15.563Z,100343.34
2023-05-04T17:21:17.207Z,100363.19
2023-05-04T17:26:18.578Z,100353.91
2023-05-04T17:31:19.989Z,100359.25
2023-05-04T17:36:21.410Z,100360.06
2023-05-04T17:41:24.655Z,100359.03
2023-05-04T17:46:26.236Z,100367.31
2023-05-04T17:51:27.786Z,100366.47
2023-05-04T17:56:29.178Z,100363.53
2023-05-04T18:01:30.672Z,100370.25
2023-05-04T18:06:32.409Z,100383.94
2023-05-04T18:11:33.842Z,100382.97
2023-05-04T18:16:37.465Z,100393.91
2023-05-04T18:21:38.980Z,100397.94
2023-05-04T18:26:40.347Z,100391.78
2023-05-04T18:31:41.764Z,100375.03
2023-05-04T18:36:43.227Z,100383.44
2023-05-04T18:41:44.619Z,100380.94
2023-05-04T18:46:46.198Z,100374.66
2023-05-04T18:51:47.586Z,100383.69
2023-05-04T18:56:48.982Z,100376.53
2023-05-04T19:01:50.359Z,100386.88
2023-05-04T19:06:53.525Z,100389.59
2023-05-04T19:11:54.908Z,100402.22
2023-05-04T19:16:57.340Z,100396.75
2023-05-04T19:21:58.719Z,100396.97
2023-05-04T19:27:00.513Z,100401.59
2023-05-04T19:32:12.014Z,100401.59
2023-05-04T19:37:21.819Z,100400.53
2023-05-04T19:42:23.199Z,100404.78
2023-05-04T19:47:24.961Z,100393.84
2023-05-04T19:52:26.375Z,100386.50
2023-05-04T19:57:28.251Z,100381.66
2023-05-04T20:02:29.748Z,100377.94
2023-05-04T20:07:31.221Z,100381.88
2023-05-04T20:12:34.000Z,100373.47
2023-05-04T20:17:35.432Z,100376.41
2023-05-04T20:22:38.170Z,100373.69
2023-05-04T20:27:39.607Z,100377.47
2023-05-04T20:32:41.030Z,100375.81
2023-05-04T20:37:42.453Z,100373.69
2023-05-04T20:42:44.084Z,100376.88
2023-05-04T20:47:45.493Z,100381.75
2023-05-04T20:52:47.153Z,100384.59
2023-05-04T20:57:49.533Z,100385.06
2023-05-04T21:02:51.100Z,100384.22
2023-05-04T21:07:52.669Z,100385.53
2023-05-04T21:12:54.156Z,100388.06
2023-05-04T21:17:55.656Z,100379.22
2023-05-04T21:22:57.455Z,100375.06
2023-05-04T21:27:58.840Z,100375.06
2023-05-04T21:33:00.619Z,100374.84
2023-05-04T21:38:02.203Z,100370.69
2023-05-04T21:43:03.606Z,100362.56
2023-05-04T21:48:05.883Z,100355.78
2023-05-04T21:53:07.288Z,100360.41
2023-05-04T21:58:08.697Z,100365.28
2023-05-04T22:03:11.154Z,100359.00
2023-05-04T22:08:12.524Z,100361.72
2023-05-04T22:13:14.021Z,100361.97
2023-05-04T22:18:15.716Z,100358.16
2023-05-04T22:23:17.120Z,100357.94
2023-05-04T22:28:18.495Z,100361.97
2023-05-04T22:33:19.862Z,100358.41
2023-05-04T22:38:21.526Z,100361.97
2023-05-04T22:43:22.923Z,100358.16
2023-05-04T22:48:24.318Z,100369.31
2023-05-04T22:53:25.694Z,100368.69
2023-05-04T22:58:27.186Z,100376.22
2023-05-04T23:03:28.704Z,100372.25
2023-05-04T23:08:30.119Z,100365.84
2023-05-04T23:13:31.496Z,100350.41
2023-05-04T23:18:32.950Z,100349.59
2023-05-04T23:23:34.512Z,100347.56
2023-05-04T23:28:35.924Z,100339.97
2023-05-04T23:33:37.362Z,100348.16
2023-05-04T23:38:38.799Z,100350.03
2023-05-04T23:43:40.202Z,100351.34
2023-05-04T23:48:41.646Z,100352.19
2023-05-04T23:53:43.031Z,100339.38
2023-05-04T23:58:44.408Z,100341.50
